LFPN

Toussus-le-Noble Airport

Toussus-le-Noble, France
METAR LFPN 122130Z AUTO 10012KT 7000 OVC008 01/M01 Q1018 TEMPO 4000 BR BKN004
Observed Flight Rules
Dec-12 @ 21:30 UTC (49 minutes ago) Instrument Flight Rules
Wind Visibility Clouds
100° at 12 knots 7,001 meters
  • Overcast at 800' AGL
Temperatures Readings
Current 1°C / 34°F
Dewpoint -1°C / 30°F
Humidity 87%
Altimeter 30.06" Hg
Pressure 1018 hPa
Elevation 164
METAR LFPN 122130Z AUTO 10012KT 7000 OVC008 01/M01 Q1018 TEMPO 4000 BR BKN004
Observed Flight Rules
Dec-12 @ 21:30 UTC
(49 minutes ago)
IFR
Wind Visibility
100° at 12 knots 7,001 meters
Clouds
  • Overcast at 800' AGL
Temperature Dewpoint
1°C / 34°F -1°C / 30°F
Humidity Altimeter Pressure
87% 30.06" Hg 1018 hPa